createdAt,value
2019-03-11T00:00:03.596Z,3.70
2019-03-11T00:02:32.885Z,3.70
2019-03-11T00:05:02.027Z,3.70
2019-03-11T00:07:31.179Z,3.70
2019-03-11T00:10:00.471Z,3.70
2019-03-11T00:12:29.790Z,3.70
2019-03-11T00:14:59.021Z,3.70
2019-03-11T00:17:28.152Z,3.70
2019-03-11T00:19:57.302Z,3.70
2019-03-11T00:22:26.537Z,3.60
2019-03-11T00:24:55.692Z,3.70
2019-03-11T00:27:24.832Z,3.70
2019-03-11T00:29:54.054Z,3.70
2019-03-11T00:32:23.183Z,3.70
2019-03-11T00:34:52.317Z,3.70
2019-03-11T00:37:22.720Z,3.70
2019-03-11T00:39:51.878Z,3.70
2019-03-11T00:42:21.118Z,3.80
2019-03-11T00:44:50.824Z,3.80
2019-03-11T00:47:20.044Z,3.80
2019-03-11T00:49:49.574Z,3.90
2019-03-11T00:52:18.753Z,3.90
2019-03-11T00:54:47.890Z,3.90
2019-03-11T00:57:17.106Z,3.90
2019-03-11T00:59:46.347Z,4.00
2019-03-11T01:02:15.566Z,4.00
2019-03-11T01:04:44.830Z,4.00
2019-03-11T01:07:14.411Z,4.00
2019-03-11T01:09:43.595Z,4.10
2019-03-11T01:12:12.726Z,4.10
2019-03-11T01:14:41.895Z,4.10
2019-03-11T01:17:11.030Z,4.10
2019-03-11T01:19:40.187Z,4.10
2019-03-11T01:22:09.406Z,4.10
2019-03-11T01:24:38.543Z,4.20
2019-03-11T01:27:07.676Z,4.10
2019-03-11T01:29:36.844Z,4.10
2019-03-11T01:32:06.102Z,4.10
2019-03-11T01:34:35.232Z,4.00
2019-03-11T01:37:04.392Z,4.00
2019-03-11T01:39:33.539Z,4.10
2019-03-11T01:42:02.652Z,4.00
2019-03-11T01:44:31.804Z,4.00
2019-03-11T01:47:00.939Z,4.00
2019-03-11T01:49:30.069Z,4.00
2019-03-11T01:51:59.230Z,4.00
2019-03-11T01:54:28.446Z,4.00
2019-03-11T01:56:57.579Z,3.90
2019-03-11T01:59:26.826Z,3.90
2019-03-11T02:01:56.021Z,3.90
2019-03-11T02:04:25.238Z,3.90
2019-03-11T02:06:54.466Z,3.90
2019-03-11T02:09:23.618Z,3.90
2019-03-11T02:11:52.867Z,3.90
2019-03-11T02:14:22.019Z,3.90
2019-03-11T02:16:51.233Z,3.90
2019-03-11T02:19:20.444Z,3.90
2019-03-11T02:21:49.610Z,4.00
2019-03-11T02:24:18.735Z,4.10
2019-03-11T02:26:50.316Z,4.20
2019-03-11T02:29:19.483Z,4.30
2019-03-11T02:31:48.728Z,4.30
2019-03-11T02:34:17.918Z,4.40
2019-03-11T02:36:47.079Z,4.30
2019-03-11T02:39:16.285Z,4.30
2019-03-11T02:41:45.415Z,4.30
2019-03-11T02:44:14.659Z,4.40
2019-03-11T02:46:43.804Z,4.40
2019-03-11T02:49:13.022Z,4.40
2019-03-11T02:51:42.187Z,4.40
2019-03-11T02:54:11.308Z,4.40
2019-03-11T02:56:40.445Z,4.40
2019-03-11T02:59:09.897Z,4.50
2019-03-11T03:02:07.209Z,4.50
2019-03-11T03:04:46.042Z,4.50
2019-03-11T03:07:15.195Z,4.50
2019-03-11T03:09:44.386Z,4.50
2019-03-11T03:12:13.547Z,4.50
2019-03-11T03:14:42.750Z,4.50
2019-03-11T03:17:11.970Z,4.60
2019-03-11T03:19:41.199Z,4.60
2019-03-11T03:22:10.411Z,4.60
2019-03-11T03:24:39.546Z,4.60
2019-03-11T03:27:08.787Z,4.60
2019-03-11T03:29:37.985Z,4.70
2019-03-11T03:32:07.141Z,4.70
2019-03-11T03:34:36.297Z,4.60
2019-03-11T03:37:05.507Z,4.60
2019-03-11T03:39:34.647Z,4.60
2019-03-11T03:42:04.511Z,4.60
2019-03-11T03:44:34.125Z,4.60
2019-03-11T03:47:03.319Z,4.60
2019-03-11T03:49:32.480Z,4.60
2019-03-11T03:52:01.673Z,4.60
2019-03-11T03:54:30.911Z,4.70
2019-03-11T03:57:00.135Z,4.60
2019-03-11T03:59:29.276Z,4.60
2019-03-11T04:01:58.556Z,4.60
2019-03-11T04:04:27.729Z,4.40
2019-03-11T04:06:56.856Z,4.20
2019-03-11T04:09:25.993Z,4.10
2019-03-11T04:11:55.165Z,3.90
2019-03-11T04:14:24.409Z,3.50
2019-03-11T04:16:53.569Z,3.40
2019-03-11T04:19:22.825Z,3.30
2019-03-11T04:21:52.492Z,3.30
2019-03-11T04:24:21.804Z,3.30
2019-03-11T04:26:54.746Z,3.20
2019-03-11T04:29:23.962Z,3.20
2019-03-11T04:31:53.162Z,3.20
2019-03-11T04:34:22.344Z,3.20
2019-03-11T04:36:51.884Z,3.20
2019-03-11T04:39:21.020Z,3.30
2019-03-11T04:41:50.181Z,3.30
2019-03-11T04:44:19.315Z,3.40
2019-03-11T04:46:48.440Z,3.40
2019-03-11T04:49:17.607Z,3.40
2019-03-11T04:51:46.743Z,3.40
2019-03-11T04:54:15.872Z,3.50
2019-03-11T04:56:45.034Z,3.50
2019-03-11T04:59:14.444Z,3.60
2019-03-11T05:01:43.605Z,3.60
2019-03-11T05:04:12.835Z,3.50
2019-03-11T05:06:41.975Z,3.40
2019-03-11T05:09:11.154Z,3.30
2019-03-11T05:11:40.387Z,3.20
2019-03-11T05:14:09.513Z,3.20
2019-03-11T05:16:38.629Z,3.20
2019-03-11T05:19:07.794Z,3.30
2019-03-11T05:21:36.929Z,3.30
2019-03-11T05:24:06.070Z,3.40
2019-03-11T05:26:35.220Z,3.30
2019-03-11T05:29:04.356Z,3.40
2019-03-11T05:31:33.483Z,3.50
2019-03-11T05:34:02.654Z,3.60
2019-03-11T05:36:31.787Z,3.60
2019-03-11T05:39:00.913Z,3.60
2019-03-11T05:41:30.072Z,3.60
2019-03-11T05:43:59.199Z,3.60
2019-03-11T05:46:28.340Z,3.60
2019-03-11T05:48:57.530Z,3.60
2019-03-11T05:51:31.340Z,3.60
2019-03-11T05:53:57.539Z,3.50
2019-03-11T05:56:27.013Z,3.50
2019-03-11T05:58:56.146Z,3.50
2019-03-11T06:01:25.277Z,3.50
2019-03-11T06:03:54.428Z,3.50
2019-03-11T06:06:23.577Z,3.60
2019-03-11T06:08:52.766Z,3.70
2019-03-11T06:11:21.984Z,3.70
2019-03-11T06:13:51.182Z,3.70
2019-03-11T06:16:20.337Z,3.60
2019-03-11T06:18:51.587Z,3.50
2019-03-11T06:21:32.114Z,2.90
2019-03-11T06:24:01.270Z,2.40
2019-03-11T06:26:30.412Z,2.10
2019-03-11T06:28:59.681Z,2.10
2019-03-11T06:31:28.864Z,2.10
2019-03-11T06:33:58.015Z,2.10
2019-03-11T06:36:27.224Z,2.20
2019-03-11T06:39:05.406Z,2.20
2019-03-11T06:41:27.264Z,2.20
2019-03-11T06:43:56.404Z,2.20
2019-03-11T06:46:25.559Z,2.30
2019-03-11T06:48:54.723Z,2.30
2019-03-11T06:51:23.998Z,2.40
2019-03-11T06:53:53.262Z,2.40
2019-03-11T06:56:22.410Z,2.50
2019-03-11T06:58:51.616Z,2.60
2019-03-11T07:01:20.793Z,2.70
2019-03-11T07:03:49.929Z,2.80
2019-03-11T07:06:19.131Z,2.90
2019-03-11T07:08:48.290Z,3.00
2019-03-11T07:11:17.514Z,3.10
2019-03-11T07:13:46.656Z,3.30
2019-03-11T07:16:15.876Z,3.50
2019-03-11T07:18:45.010Z,3.60
2019-03-11T07:21:14.146Z,3.70
2019-03-11T07:23:43.333Z,3.70
2019-03-11T07:26:12.555Z,3.70
2019-03-11T07:28:41.767Z,3.70
2019-03-11T07:31:11.069Z,3.60
2019-03-11T07:33:40.243Z,3.60
2019-03-11T07:36:09.394Z,3.60
2019-03-11T07:38:39.238Z,3.60
2019-03-11T07:41:09.116Z,3.70
2019-03-11T07:43:38.371Z,3.70
2019-03-11T07:46:07.565Z,3.80
2019-03-11T07:48:36.770Z,3.80
2019-03-11T07:51:05.909Z,3.70
2019-03-11T07:53:35.117Z,3.60
2019-03-11T07:56:04.254Z,3.60
2019-03-11T07:58:33.402Z,3.60
2019-03-11T08:01:02.625Z,3.60
2019-03-11T08:03:31.930Z,3.60
2019-03-11T08:06:01.085Z,3.40
2019-03-11T08:08:30.326Z,3.30
2019-03-11T08:10:59.534Z,3.30
2019-03-11T08:13:28.664Z,3.30
2019-03-11T08:15:58.186Z,3.40
2019-03-11T08:18:35.063Z,3.50
2019-03-11T08:20:58.207Z,3.70
2019-03-11T08:23:27.391Z,3.60
2019-03-11T08:25:56.518Z,3.50
2019-03-11T08:28:25.671Z,3.60
2019-03-11T08:30:54.837Z,3.70
2019-03-11T08:33:23.970Z,3.70
2019-03-11T08:35:53.156Z,3.80
2019-03-11T08:38:22.325Z,3.80
2019-03-11T08:40:51.482Z,3.90
2019-03-11T08:43:20.693Z,3.90
2019-03-11T08:45:49.857Z,3.90
2019-03-11T08:48:19.023Z,3.90
2019-03-11T08:50:50.588Z,4.10
2019-03-11T08:53:19.832Z,4.20
2019-03-11T08:55:49.078Z,4.30
2019-03-11T08:58:18.227Z,4.30
2019-03-11T09:00:47.483Z,4.40
2019-03-11T09:03:16.665Z,4.60
2019-03-11T09:05:45.875Z,4.80
2019-03-11T09:08:15.056Z,4.80
2019-03-11T09:10:44.206Z,4.70
2019-03-11T09:13:13.428Z,4.70
2019-03-11T09:15:42.699Z,4.90
2019-03-11T09:18:11.932Z,5.00
2019-03-11T09:20:41.195Z,5.00
2019-03-11T09:23:10.455Z,4.90
2019-03-11T09:25:39.591Z,5.00
2019-03-11T09:28:08.795Z,5.10
2019-03-11T09:30:37.973Z,5.30
2019-03-11T09:33:08.439Z,5.40
2019-03-11T09:35:38.015Z,5.30
2019-03-11T09:38:07.183Z,5.50
2019-03-11T09:40:36.419Z,5.60
2019-03-11T09:43:05.641Z,5.60
2019-03-11T09:45:34.923Z,5.60
2019-03-11T09:48:04.799Z,5.50
2019-03-11T09:50:34.190Z,5.40
2019-03-11T09:53:03.437Z,5.30
2019-03-11T09:55:32.745Z,5.50
2019-03-11T09:58:01.966Z,5.50
2019-03-11T10:00:31.235Z,5.50
2019-03-11T10:03:00.381Z,5.50
2019-03-11T10:05:30.167Z,5.60
2019-03-11T10:07:59.532Z,5.50
2019-03-11T10:10:28.959Z,5.50
2019-03-11T10:12:58.119Z,5.60
2019-03-11T10:15:27.439Z,5.70
2019-03-11T10:17:56.575Z,5.80
2019-03-11T10:20:25.714Z,5.90
2019-03-11T10:22:54.955Z,6.10
2019-03-11T10:25:24.262Z,6.40
2019-03-11T10:27:53.457Z,6.60
2019-03-11T10:30:22.778Z,6.80
2019-03-11T10:32:51.915Z,7.00
2019-03-11T10:35:36.595Z,7.00
2019-03-11T10:37:52.348Z,7.00
2019-03-11T10:40:21.667Z,6.90
2019-03-11T10:42:52.026Z,6.90
2019-03-11T10:45:30.583Z,6.90
2019-03-11T10:47:52.747Z,6.70
2019-03-11T10:50:22.537Z,6.70
2019-03-11T10:52:51.842Z,6.70
2019-03-11T10:55:20.994Z,6.80
2019-03-11T10:57:50.212Z,6.80
2019-03-11T11:00:22.548Z,6.90
2019-03-11T11:02:51.698Z,7.10
2019-03-11T11:05:21.617Z,7.20
2019-03-11T11:07:50.870Z,7.20
2019-03-11T11:10:20.796Z,7.20
2019-03-11T11:12:50.013Z,7.10
2019-03-11T11:15:20.715Z,7.10
2019-03-11T11:17:49.935Z,7.00
2019-03-11T11:20:19.566Z,7.00
2019-03-11T11:22:49.512Z,7.10
2019-03-11T11:25:20.044Z,7.30
2019-03-11T11:27:49.283Z,7.30
2019-03-11T11:30:20.265Z,7.40
2019-03-11T11:32:49.445Z,7.40
2019-03-11T11:35:19.079Z,7.50
2019-03-11T11:37:48.770Z,7.50
2019-03-11T11:40:22.613Z,7.50
2019-03-11T11:42:51.880Z,7.50
2019-03-11T11:45:21.562Z,7.50
2019-03-11T11:47:50.793Z,7.50
2019-03-11T11:50:20.835Z,7.60
2019-03-11T11:52:50.317Z,7.80
2019-03-11T11:55:20.239Z,7.80
2019-03-11T11:57:49.881Z,7.80
2019-03-11T12:00:25.916Z,7.80
2019-03-11T12:02:55.143Z,8.00
2019-03-11T12:05:24.332Z,8.10
2019-03-11T12:07:53.901Z,8.00
2019-03-11T12:10:23.456Z,8.10
2019-03-11T12:12:52.908Z,8.00
2019-03-11T12:15:22.185Z,7.70
2019-03-11T12:17:51.463Z,7.50
2019-03-11T12:20:21.993Z,7.50
2019-03-11T12:22:51.273Z,7.40
2019-03-11T12:25:20.429Z,7.40
2019-03-11T12:27:54.194Z,7.40
2019-03-11T12:30:24.721Z,7.30
2019-03-11T12:32:54.299Z,7.50
2019-03-11T12:35:24.140Z,7.70
2019-03-11T12:37:54.082Z,7.80
2019-03-11T12:40:23.217Z,8.00
2019-03-11T12:42:52.754Z,8.00
2019-03-11T12:45:21.953Z,8.10
2019-03-11T12:47:51.178Z,8.30
2019-03-11T12:50:21.309Z,8.60
2019-03-11T12:52:51.152Z,9.00
2019-03-11T12:55:21.661Z,9.30
2019-03-11T12:57:51.575Z,9.30
2019-03-11T13:00:20.793Z,9.30
2019-03-11T13:02:50.699Z,9.20
2019-03-11T13:05:20.058Z,9.20
2019-03-11T13:07:49.705Z,9.50
2019-03-11T13:10:20.263Z,9.30
2019-03-11T13:12:49.802Z,9.00
2019-03-11T13:15:19.139Z,8.80
2019-03-11T13:17:48.285Z,8.60
2019-03-11T13:20:20.945Z,8.50
2019-03-11T13:22:53.722Z,8.40
2019-03-11T13:25:22.950Z,8.20
2019-03-11T13:27:52.169Z,8.30
2019-03-11T13:30:21.717Z,8.30
2019-03-11T13:32:51.025Z,8.40
2019-03-11T13:35:20.176Z,8.80
2019-03-11T13:37:49.621Z,9.30
2019-03-11T13:40:18.788Z,9.50
2019-03-11T13:42:48.121Z,9.40
2019-03-11T13:45:17.600Z,9.20
2019-03-11T13:47:46.747Z,9.20
2019-03-11T13:50:16.237Z,8.90
2019-03-11T13:52:45.679Z,8.80
2019-03-11T13:55:15.913Z,8.60
2019-03-11T13:57:45.140Z,8.40
2019-03-11T14:00:15.322Z,7.90
2019-03-11T14:02:44.543Z,7.60
2019-03-11T14:05:13.767Z,7.60
2019-03-11T14:07:43.043Z,7.80
2019-03-11T14:10:13.777Z,7.90
2019-03-11T14:12:42.970Z,8.10
2019-03-11T14:15:12.525Z,8.30
2019-03-11T14:17:41.671Z,8.60
2019-03-11T14:20:11.204Z,8.50
2019-03-11T14:22:40.542Z,8.70
2019-03-11T14:25:10.627Z,8.80
2019-03-11T14:27:39.836Z,8.80
2019-03-11T14:30:10.479Z,8.80
2019-03-11T14:32:39.633Z,8.70
2019-03-11T14:35:09.941Z,8.80
2019-03-11T14:37:39.127Z,8.70
2019-03-11T14:40:08.888Z,8.70
2019-03-11T14:42:38.103Z,8.60
2019-03-11T14:45:09.340Z,8.70
2019-03-11T14:47:38.488Z,8.50
2019-03-11T14:50:08.649Z,8.40
2019-03-11T14:52:37.925Z,8.40
2019-03-11T14:55:07.746Z,8.30
2019-03-11T14:57:36.967Z,8.60
2019-03-11T15:00:08.154Z,8.70
2019-03-11T15:02:37.389Z,8.50
2019-03-11T15:05:07.121Z,8.20
2019-03-11T15:07:36.287Z,8.30
2019-03-11T15:10:05.919Z,8.50
2019-03-11T15:12:35.138Z,8.70
2019-03-11T15:15:04.805Z,8.60
2019-03-11T15:17:34.019Z,8.40
2019-03-11T15:20:03.247Z,8.40
2019-03-11T15:22:32.529Z,8.50
2019-03-11T15:25:01.822Z,9.00
2019-03-11T15:27:31.039Z,9.10
2019-03-11T15:30:00.558Z,8.80
2019-03-11T15:32:29.784Z,8.50
2019-03-11T15:34:59.015Z,8.70
2019-03-11T15:37:28.491Z,8.50
2019-03-11T15:39:57.650Z,7.90
2019-03-11T15:42:26.855Z,7.60
2019-03-11T15:44:56.069Z,7.50
2019-03-11T15:47:25.372Z,7.30
2019-03-11T15:49:54.546Z,7.10
2019-03-11T15:52:23.783Z,7.00
2019-03-11T15:54:53.015Z,6.90
2019-03-11T15:57:22.174Z,7.30
2019-03-11T15:59:51.431Z,8.00
2019-03-11T16:02:20.580Z,7.70
2019-03-11T16:04:49.737Z,7.20
2019-03-11T16:07:18.977Z,6.90
2019-03-11T16:09:48.117Z,6.80
2019-03-11T16:12:17.352Z,6.80
2019-03-11T16:14:49.687Z,7.00
2019-03-11T16:17:18.017Z,7.60
2019-03-11T16:19:47.236Z,7.90
2019-03-11T16:22:23.310Z,8.00
2019-03-11T16:24:47.536Z,8.70
2019-03-11T16:27:16.691Z,9.50
2019-03-11T16:29:45.935Z,9.90
2019-03-11T16:32:15.189Z,10.10
2019-03-11T16:34:44.407Z,9.40
2019-03-11T16:37:13.660Z,9.10
2019-03-11T16:39:42.890Z,8.80
2019-03-11T16:42:12.365Z,8.10
2019-03-11T16:44:41.561Z,7.70
2019-03-11T16:47:10.876Z,7.60
2019-03-11T16:49:40.030Z,7.60
2019-03-11T16:52:09.286Z,7.60
2019-03-11T16:54:38.567Z,7.50
2019-03-11T16:57:07.781Z,7.50
2019-03-11T16:59:37.037Z,7.40
2019-03-11T17:02:06.323Z,7.30
2019-03-11T17:04:35.532Z,7.30
2019-03-11T17:07:05.459Z,7.30
2019-03-11T17:09:34.597Z,7.30
2019-03-11T17:12:03.834Z,7.20
2019-03-11T17:14:33.075Z,7.10
2019-03-11T17:17:02.289Z,7.10
2019-03-11T17:19:31.514Z,7.10
2019-03-11T17:22:00.745Z,7.10
2019-03-11T17:24:29.897Z,7.10
2019-03-11T17:26:59.109Z,7.10
2019-03-11T17:29:28.296Z,7.10
2019-03-11T17:31:57.530Z,7.10
2019-03-11T17:34:26.676Z,7.10
2019-03-11T17:36:55.928Z,7.10
2019-03-11T17:39:25.230Z,7.10
2019-03-11T17:41:54.513Z,7.10
2019-03-11T17:44:24.068Z,7.20
2019-03-11T17:46:53.216Z,7.20
2019-03-11T17:49:22.504Z,7.20
2019-03-11T17:51:51.675Z,7.20
2019-03-11T17:54:22.539Z,7.20
2019-03-11T17:56:51.695Z,7.30
2019-03-11T17:59:20.889Z,7.30
2019-03-11T18:01:50.108Z,7.30
2019-03-11T18:04:19.632Z,6.70
2019-03-11T18:06:48.881Z,5.70
2019-03-11T18:09:18.094Z,5.30
2019-03-11T18:11:47.243Z,5.10
2019-03-11T18:14:16.511Z,5.10
2019-03-11T18:16:45.745Z,5.10
2019-03-11T18:19:14.973Z,5.00
2019-03-11T18:21:44.354Z,4.90
2019-03-11T18:24:13.623Z,4.90
2019-03-11T18:26:42.909Z,4.80
2019-03-11T18:29:12.167Z,4.80
2019-03-11T18:31:41.392Z,4.90
2019-03-11T18:34:10.613Z,4.90
2019-03-11T18:36:39.898Z,4.80
2019-03-11T18:39:10.411Z,4.80
2019-03-11T18:41:39.570Z,4.80
2019-03-11T18:44:08.812Z,4.80
2019-03-11T18:46:37.959Z,4.80
2019-03-11T18:49:07.231Z,4.80
2019-03-11T18:51:36.444Z,4.80
2019-03-11T18:54:05.886Z,4.80
2019-03-11T18:56:35.193Z,4.90
2019-03-11T18:59:04.693Z,4.80
2019-03-11T19:01:33.902Z,4.90
2019-03-11T19:04:03.319Z,4.90
2019-03-11T19:06:32.592Z,5.00
2019-03-11T19:09:01.836Z,5.00
2019-03-11T19:11:31.072Z,4.90
2019-03-11T19:14:00.283Z,4.90
2019-03-11T19:16:29.662Z,4.90
2019-03-11T19:18:58.822Z,4.90
2019-03-11T19:21:28.077Z,5.00
2019-03-11T19:23:57.309Z,5.00
2019-03-11T19:26:26.513Z,5.10
2019-03-11T19:28:55.760Z,5.10
2019-03-11T19:31:25.077Z,5.10
2019-03-11T19:33:54.321Z,5.20
2019-03-11T19:36:23.897Z,5.20
2019-03-11T19:38:53.196Z,5.30
2019-03-11T19:41:22.464Z,5.30
2019-03-11T19:43:51.730Z,5.20
2019-03-11T19:46:20.998Z,5.10
2019-03-11T19:48:50.200Z,5.00
2019-03-11T19:51:19.428Z,4.90
2019-03-11T19:53:48.658Z,4.90
2019-03-11T19:56:17.887Z,4.80
2019-03-11T19:58:47.335Z,4.80
2019-03-11T20:01:16.574Z,4.80
2019-03-11T20:03:45.800Z,4.70
2019-03-11T20:06:15.140Z,4.70
2019-03-11T20:08:44.428Z,4.60
2019-03-11T20:11:13.869Z,4.60
2019-03-11T20:13:43.117Z,4.60
2019-03-11T20:16:12.327Z,4.60
2019-03-11T20:18:41.540Z,4.70
2019-03-11T20:21:10.774Z,4.80
2019-03-11T20:23:39.981Z,4.80
2019-03-11T20:26:09.164Z,4.80
2019-03-11T20:28:38.588Z,4.80
2019-03-11T20:31:08.156Z,4.70
2019-03-11T20:33:37.347Z,4.60
2019-03-11T20:36:16.185Z,4.50
2019-03-11T20:38:37.476Z,4.50
2019-03-11T20:41:06.937Z,4.40
2019-03-11T20:43:36.267Z,4.30
2019-03-11T20:46:05.429Z,4.20
2019-03-11T20:48:34.663Z,4.20
2019-03-11T20:51:05.189Z,4.10
2019-03-11T20:53:34.433Z,4.00
2019-03-11T20:56:03.762Z,4.00
2019-03-11T20:58:33.052Z,4.00
2019-03-11T21:01:02.283Z,3.90
2019-03-11T21:03:31.568Z,3.90
2019-03-11T21:06:01.040Z,3.90
2019-03-11T21:08:30.220Z,3.90
2019-03-11T21:10:59.555Z,3.90
2019-03-11T21:13:28.944Z,3.90
2019-03-11T21:15:58.521Z,3.90
2019-03-11T21:18:27.797Z,3.80
2019-03-11T21:21:04.628Z,3.70
2019-03-11T21:23:27.859Z,3.80
2019-03-11T21:25:57.212Z,3.80
2019-03-11T21:28:26.604Z,3.70
2019-03-11T21:30:56.060Z,3.70
2019-03-11T21:33:25.293Z,3.70
2019-03-11T21:35:54.609Z,3.70
2019-03-11T21:38:23.891Z,3.60
2019-03-11T21:40:53.233Z,3.60
2019-03-11T21:43:22.737Z,3.60
2019-03-11T21:45:52.241Z,3.50
2019-03-11T21:48:21.557Z,3.50
2019-03-11T21:50:50.898Z,3.50
2019-03-11T21:53:20.132Z,3.50
2019-03-11T21:55:49.391Z,3.40
2019-03-11T21:58:18.902Z,3.50
2019-03-11T22:00:48.356Z,3.50
2019-03-11T22:03:17.587Z,3.40
2019-03-11T22:05:46.761Z,3.40
2019-03-11T22:08:15.900Z,3.40
2019-03-11T22:10:45.171Z,3.40
2019-03-11T22:13:14.404Z,3.40
2019-03-11T22:15:43.626Z,3.40
2019-03-11T22:18:12.795Z,3.40
2019-03-11T22:20:42.043Z,3.40
2019-03-11T22:23:11.329Z,3.40
2019-03-11T22:25:40.544Z,3.40
2019-03-11T22:28:09.865Z,3.40
2019-03-11T22:30:39.079Z,3.40
2019-03-11T22:33:08.307Z,3.40
2019-03-11T22:35:37.591Z,3.40
2019-03-11T22:38:06.813Z,3.40
2019-03-11T22:40:35.957Z,3.40
2019-03-11T22:43:05.586Z,3.40
2019-03-11T22:45:34.797Z,3.30
2019-03-11T22:48:04.025Z,3.30
2019-03-11T22:50:33.350Z,3.30
2019-03-11T22:53:02.575Z,3.30
2019-03-11T22:55:31.858Z,3.30
2019-03-11T22:58:01.319Z,3.30
2019-03-11T23:00:53.883Z,3.40
2019-03-11T23:03:24.119Z,3.40
2019-03-11T23:05:58.086Z,3.60
2019-03-11T23:08:24.491Z,3.60
2019-03-11T23:10:53.651Z,3.60
2019-03-11T23:13:22.797Z,3.60
2019-03-11T23:15:52.021Z,3.70
2019-03-11T23:18:21.260Z,3.60
2019-03-11T23:20:50.429Z,3.60
2019-03-11T23:23:19.572Z,3.50
2019-03-11T23:25:48.809Z,3.50
2019-03-11T23:28:18.018Z,3.50
2019-03-11T23:30:47.245Z,3.50
2019-03-11T23:33:16.560Z,3.50
2019-03-11T23:35:45.773Z,3.50
2019-03-11T23:38:15.012Z,3.50
2019-03-11T23:40:44.201Z,3.50
2019-03-11T23:43:13.338Z,3.50
2019-03-11T23:45:42.465Z,3.50
2019-03-11T23:48:11.620Z,3.60
2019-03-11T23:50:40.765Z,3.50
2019-03-11T23:53:09.979Z,3.60
2019-03-11T23:55:39.292Z,3.60
2019-03-11T23:58:08.591Z,3.70
